Hlavní strana
METAR-TAF:

METAR-TAF

Letiště :

Alžír, Alžírsko

Letiště Houariho Boumédièna

zeměpisná šířka: 36-43N, zeměpisná délka: 003-15E, výška: 25 m

Aktuální stav počasí

Zpráva byla vytvořena před 30 minutami, v 22:30 UTC
Jihojihozápadní vítr 7 kt
Teplota 12°C
Vlhkost vzduchu 82%
Tlak 1024 hPa
Viditelnost 10 km a více
Skoro jasno ve výšce 2000 ft

METAR: DAAG 202230Z 21007KT 9999 FEW020 12/09 Q1024

Čas: 00:00 (23:00 UTC)

Předpověď počasí

Zpráva byla vytvořena před 6 hodinami a 0 minutami, v 17:00 UTC
Předpověď platná od 20 v 18 UTC do 21 v 18 UTC
Západní vítr 10 kt
Viditelnost 10 km a více
Polojasno ve výšce 2300 ft
Dočasný
od 20 v 18 UTC do 20 v 22 UTC
Skoro jasno ve výšce 2000 ft, Vertikální cumulus.
Změna
od 21 v 09 UTC do 21 v 12 UTC
Severoseverozápadní vítr 12 kt

TAF: DAAG 201700Z 2018/2118 26010KT 9999 SCT023 TEMPO 2018/2022 FEW020TCU BECMG 2109/2112 34012KT

Stav a předpovědi počasí z více než 4 000 letišť (zprávy METAR a TAF).

Červené a žluté tečky na mapě představují dostupné meteorologické stanice.

Když kurzor umístíte na tečku, zobrazí se název stanice.

Pak kliknutím zobrazíte stav a předpověď počasí.

Chcete-li změnit mapu, kliknutím na zelené tlačítko se znaménkem +mapu přiblížíte, kliknutím na zelené tlačítko se znaménkem – mapu oddálíte a kliknutím na zelené šipky přejdete na sousední mapy.


METAR-TAF: